createdAt,value
2018-02-09T00:01:36.140Z,101316.56
2018-02-09T00:04:02.077Z,101312.72
2018-02-09T00:06:28.098Z,101317.41
2018-02-09T00:08:54.033Z,101311.17
2018-02-09T00:11:19.977Z,101315.13
2018-02-09T00:13:45.925Z,101317.71
2018-02-09T00:16:11.898Z,101315.98
2018-02-09T00:18:37.838Z,101314.48
2018-02-09T00:21:03.794Z,101313.80
2018-02-09T00:23:29.742Z,101306.47
2018-02-09T00:25:55.682Z,101306.16
2018-02-09T00:28:21.639Z,101300.84
2018-02-09T00:30:47.588Z,101300.96
2018-02-09T00:33:13.554Z,101302.22
2018-02-09T00:35:39.493Z,101305.22
2018-02-09T00:38:05.474Z,101307.30
2018-02-09T00:40:31.417Z,101307.02
2018-02-09T00:42:57.370Z,101301.20
2018-02-09T00:45:23.342Z,101299.17
2018-02-09T00:47:49.302Z,101301.09
2018-02-09T00:50:15.230Z,101300.49
2018-02-09T00:52:41.193Z,101295.95
2018-02-09T00:55:07.312Z,101293.44
2018-02-09T00:57:33.245Z,101289.44
2018-02-09T00:59:59.201Z,101288.72
2018-02-09T01:02:25.157Z,101283.19
2018-02-09T01:04:51.109Z,101285.91
2018-02-09T01:07:17.054Z,101281.83
2018-02-09T01:09:43.032Z,101281.40
2018-02-09T01:12:08.977Z,101282.42
2018-02-09T01:14:34.969Z,101285.13
2018-02-09T01:17:00.867Z,101280.23
2018-02-09T01:19:26.803Z,101279.73
2018-02-09T01:21:52.780Z,101281.23
2018-02-09T01:24:18.741Z,101272.67
2018-02-09T01:26:44.706Z,101277.70
2018-02-09T01:29:10.745Z,101279.97
2018-02-09T01:31:36.713Z,101278.19
2018-02-09T01:34:02.653Z,101280.09
2018-02-09T01:36:28.602Z,101277.70
2018-02-09T01:38:54.552Z,101273.41
2018-02-09T01:41:20.507Z,101273.70
2018-02-09T01:43:46.441Z,101262.11
2018-02-09T01:46:12.469Z,101260.75
2018-02-09T01:48:38.441Z,101263.86
2018-02-09T01:51:04.387Z,101257.78
2018-02-09T01:53:30.354Z,101259.57
2018-02-09T01:55:56.280Z,101257.66
2018-02-09T01:58:22.246Z,101255.06
2018-02-09T02:00:48.189Z,101254.98
2018-02-09T02:03:14.125Z,101252.28
2018-02-09T02:05:40.069Z,101255.70
2018-02-09T02:08:06.037Z,101256.11
2018-02-09T02:10:31.969Z,101256.06
2018-02-09T02:12:57.926Z,101250.75
2018-02-09T02:15:23.892Z,101251.52
2018-02-09T02:17:49.845Z,101244.98
2018-02-09T02:20:15.817Z,101245.89
2018-02-09T02:22:41.777Z,101249.19
2018-02-09T02:25:07.741Z,101250.50
2018-02-09T02:27:33.749Z,101248.46
2018-02-09T02:29:59.706Z,101249.72
2018-02-09T02:32:25.660Z,101245.91
2018-02-09T02:34:51.605Z,101244.17
2018-02-09T02:37:17.553Z,101241.36
2018-02-09T02:39:43.498Z,101234.87
2018-02-09T02:42:09.471Z,101234.63
2018-02-09T02:44:35.410Z,101225.06
2018-02-09T02:47:01.377Z,101216.72
2018-02-09T02:49:27.308Z,101212.88
2018-02-09T02:51:53.269Z,101208.22
2018-02-09T02:54:19.279Z,101202.64
2018-02-09T02:56:45.218Z,101197.83
2018-02-09T02:59:11.222Z,101201.89
2018-02-09T03:01:37.293Z,101196.58
2018-02-09T03:04:03.249Z,101200.41
2018-02-09T03:06:29.204Z,101200.00
2018-02-09T03:08:55.173Z,101189.33
2018-02-09T03:11:21.128Z,101188.89
2018-02-09T03:13:47.101Z,101182.46
2018-02-09T03:16:13.092Z,101181.90
2018-02-09T03:18:39.037Z,101178.92
2018-02-09T03:21:04.985Z,101172.83
2018-02-09T03:23:30.945Z,101177.22
2018-02-09T03:25:56.936Z,101171.68
2018-02-09T03:28:22.874Z,101166.73
2018-02-09T03:30:48.841Z,101162.32
2018-02-09T03:33:14.785Z,101159.40
2018-02-09T03:35:40.729Z,101152.88
2018-02-09T03:38:06.694Z,101148.56
2018-02-09T03:40:32.651Z,101146.47
2018-02-09T03:42:58.588Z,101145.84
2018-02-09T03:45:24.524Z,101152.08
2018-02-09T03:47:50.465Z,101148.73
2018-02-09T03:50:16.410Z,101152.51
2018-02-09T03:52:42.354Z,101149.28
2018-02-09T03:55:08.293Z,101149.05
2018-02-09T03:57:34.230Z,101152.43
2018-02-09T04:00:00.310Z,101143.62
2018-02-09T04:02:26.250Z,101147.80
2018-02-09T04:04:52.210Z,101144.72
2018-02-09T04:07:18.377Z,101141.36
2018-02-09T04:09:44.364Z,101142.45
2018-02-09T04:12:10.316Z,101142.37
2018-02-09T04:14:36.286Z,101144.17
2018-02-09T04:17:02.239Z,101140.10
2018-02-09T04:19:28.194Z,101135.37
2018-02-09T04:21:54.139Z,101136.53
2018-02-09T04:24:20.089Z,101134.79
2018-02-09T04:26:46.041Z,101137.98
2018-02-09T04:29:12.041Z,101133.17
2018-02-09T04:31:37.974Z,101134.77
2018-02-09T04:34:03.936Z,101127.55
2018-02-09T04:36:29.917Z,101145.06
2018-02-09T04:38:55.852Z,101132.81
2018-02-09T04:41:21.803Z,101135.85
2018-02-09T04:43:47.804Z,101138.22
2018-02-09T04:46:13.765Z,101134.59
2018-02-09T04:48:39.711Z,101126.77
2018-02-09T04:51:05.660Z,101126.98
2018-02-09T04:53:31.597Z,101129.42
2018-02-09T04:55:57.555Z,101121.62
2018-02-09T04:58:23.499Z,101115.66
2018-02-09T05:00:49.436Z,101119.02
2018-02-09T05:03:15.377Z,101113.88
2018-02-09T05:05:41.313Z,101115.05
2018-02-09T05:08:07.273Z,101113.20
2018-02-09T05:10:33.225Z,101115.33
2018-02-09T05:12:59.181Z,101109.66
2018-02-09T05:15:25.117Z,101110.78
2018-02-09T05:17:51.085Z,101112.64
2018-02-09T05:20:17.034Z,101105.15
2018-02-09T05:22:43.005Z,101103.44
2018-02-09T05:25:08.945Z,101105.61
2018-02-09T05:27:34.902Z,101101.00
2018-02-09T05:30:00.874Z,101094.45
2018-02-09T05:32:26.813Z,101087.95
2018-02-09T05:34:52.778Z,101088.43
2018-02-09T05:37:18.749Z,101087.91
2018-02-09T05:39:44.721Z,101084.77
2018-02-09T05:42:10.652Z,101079.30
2018-02-09T05:44:36.611Z,101079.97
2018-02-09T05:47:02.565Z,101081.11
2018-02-09T05:49:28.494Z,101076.81
2018-02-09T05:51:54.433Z,101078.44
2018-02-09T05:54:20.375Z,101077.20
2018-02-09T05:56:46.475Z,101072.33
2018-02-09T05:59:12.393Z,101073.52
2018-02-09T06:01:38.337Z,101078.31
2018-02-09T06:04:04.273Z,101072.23
2018-02-09T06:06:30.233Z,101067.25
2018-02-09T06:08:56.182Z,101078.97
2018-02-09T06:11:22.125Z,101074.11
2018-02-09T06:13:48.086Z,101072.92
2018-02-09T06:16:14.017Z,101070.35
2018-02-09T06:18:39.986Z,101071.81
2018-02-09T06:21:05.924Z,101061.67
2018-02-09T06:23:31.859Z,101059.02
2018-02-09T06:25:57.804Z,101062.72
2018-02-09T06:28:23.770Z,101061.43
2018-02-09T06:30:49.725Z,101053.23
2018-02-09T06:33:15.673Z,101051.58
2018-02-09T06:35:41.613Z,101044.44
2018-02-09T06:38:07.556Z,101044.22
2018-02-09T06:40:33.497Z,101044.68
2018-02-09T06:42:59.472Z,101045.19
2018-02-09T06:45:25.442Z,101051.01
2018-02-09T06:47:51.378Z,101049.81
2018-02-09T06:50:17.324Z,101056.59
2018-02-09T06:52:43.264Z,101052.12
2018-02-09T06:55:09.200Z,101058.59
2018-02-09T06:57:35.142Z,101052.12
2018-02-09T07:00:01.134Z,101057.67
2018-02-09T07:02:27.078Z,101047.77
2018-02-09T07:04:53.047Z,101055.86
2018-02-09T07:07:19.105Z,101051.38
2018-02-09T07:09:45.083Z,101046.66
2018-02-09T07:12:11.037Z,101043.02
2018-02-09T07:14:37.105Z,101035.13
2018-02-09T07:17:03.125Z,101040.25
2018-02-09T07:19:29.091Z,101038.91
2018-02-09T07:21:55.042Z,101043.71
2018-02-09T07:24:21.012Z,101042.45
2018-02-09T07:26:46.961Z,101037.55
2018-02-09T07:29:12.893Z,101029.56
2018-02-09T07:31:38.993Z,101031.28
2018-02-09T07:34:04.959Z,101035.70
2018-02-09T07:36:30.929Z,101029.58
2018-02-09T07:38:56.946Z,101033.11
2018-02-09T07:41:22.896Z,101027.23
2018-02-09T07:43:48.873Z,101035.06
2018-02-09T07:46:15.057Z,101038.40
2018-02-09T07:48:41.175Z,101032.23
2018-02-09T07:51:07.166Z,101034.05
2018-02-09T07:53:33.200Z,101035.16
2018-02-09T07:55:59.233Z,101034.39
2018-02-09T07:58:25.259Z,101031.86
2018-02-09T08:00:51.307Z,101023.53
2018-02-09T08:03:17.285Z,101022.83
2018-02-09T08:05:43.345Z,101020.41
2018-02-09T08:08:09.342Z,101014.83
2018-02-09T08:10:35.293Z,101018.78
2018-02-09T08:13:01.443Z,101019.88
2018-02-09T08:15:27.501Z,101023.93
2018-02-09T08:17:53.561Z,101016.18
2018-02-09T08:20:19.648Z,101009.44
2018-02-09T08:22:45.653Z,101007.84
2018-02-09T08:25:11.588Z,100995.93
2018-02-09T08:27:37.565Z,101004.27
2018-02-09T08:30:03.586Z,100996.87
2018-02-09T08:32:29.537Z,101001.80
2018-02-09T08:34:55.497Z,100999.41
2018-02-09T08:37:21.501Z,101002.33
2018-02-09T08:39:47.450Z,101005.81
2018-02-09T08:42:13.406Z,101004.13
2018-02-09T08:44:39.345Z,101007.05
2018-02-09T08:47:05.298Z,101002.39
2018-02-09T08:49:31.254Z,100998.77
2018-02-09T08:51:57.185Z,100989.70
2018-02-09T08:54:23.197Z,100989.67
2018-02-09T08:56:49.145Z,100993.95
2018-02-09T08:59:15.090Z,100999.20
2018-02-09T09:01:41.029Z,100995.79
2018-02-09T09:04:07.002Z,100994.59
2018-02-09T09:06:32.971Z,100993.88
2018-02-09T09:08:58.917Z,100992.66
2018-02-09T09:11:24.892Z,100990.98
2018-02-09T09:13:50.835Z,100985.43
2018-02-09T09:16:16.809Z,100987.63
2018-02-09T09:18:42.760Z,100979.66
2018-02-09T09:21:08.709Z,100971.66
2018-02-09T09:23:34.653Z,100979.61
2018-02-09T09:26:00.609Z,100973.17
2018-02-09T09:28:26.565Z,100968.80
2018-02-09T09:30:52.526Z,100969.13
2018-02-09T09:33:18.489Z,100965.95
2018-02-09T09:35:44.433Z,100958.28
2018-02-09T09:38:10.437Z,100955.56
2018-02-09T09:40:36.390Z,100947.23
2018-02-09T09:43:02.359Z,100945.13
2018-02-09T09:45:28.322Z,100942.34
2018-02-09T09:47:54.384Z,100940.14
2018-02-09T09:50:20.333Z,100932.38
2018-02-09T09:52:46.336Z,100933.07
2018-02-09T09:55:12.276Z,100929.58
2018-02-09T09:57:38.291Z,100934.36
2018-02-09T10:00:04.306Z,100929.20
2018-02-09T10:02:30.453Z,100928.19
2018-02-09T10:04:56.422Z,100923.41
2018-02-09T10:07:22.399Z,100923.33
2018-02-09T10:09:48.348Z,100925.52
2018-02-09T10:12:14.301Z,100917.98
2018-02-09T10:14:40.282Z,100918.98
2018-02-09T10:17:06.244Z,100922.93
2018-02-09T10:19:32.237Z,100923.56
2018-02-09T10:21:58.181Z,100926.19
2018-02-09T10:24:24.169Z,100928.09
2018-02-09T10:26:50.170Z,100922.96
2018-02-09T10:29:16.117Z,100923.82
2018-02-09T10:31:42.090Z,100922.13
2018-02-09T10:34:08.041Z,100918.37
2018-02-09T10:36:34.026Z,100912.65
2018-02-09T10:38:59.992Z,100918.95
2018-02-09T10:41:25.934Z,100908.55
2018-02-09T10:43:51.889Z,100909.52
2018-02-09T10:46:17.871Z,100907.44
2018-02-09T10:48:43.788Z,100901.20
2018-02-09T10:51:09.747Z,100899.33
2018-02-09T10:53:35.720Z,100894.22
2018-02-09T10:56:01.666Z,100895.39
2018-02-09T10:58:27.630Z,100896.16
2018-02-09T11:00:53.569Z,100894.33
2018-02-09T11:03:19.529Z,100890.09
2018-02-09T11:05:45.490Z,100899.63
2018-02-09T11:08:11.437Z,100894.84
2018-02-09T11:10:37.378Z,100886.03
2018-02-09T11:13:03.317Z,100886.36
2018-02-09T11:15:29.284Z,100888.06
2018-02-09T11:17:55.264Z,100878.05
2018-02-09T11:20:21.222Z,100876.60
2018-02-09T11:22:47.185Z,100880.89
2018-02-09T11:25:13.190Z,100880.19
2018-02-09T11:27:39.113Z,100877.92
2018-02-09T11:30:05.074Z,100873.76
2018-02-09T11:32:31.094Z,100865.44
2018-02-09T11:34:57.047Z,100870.00
2018-02-09T11:37:22.989Z,100869.23
2018-02-09T11:39:49.023Z,100860.52
2018-02-09T11:42:14.965Z,100858.49
2018-02-09T11:44:40.923Z,100859.48
2018-02-09T11:47:06.912Z,100857.95
2018-02-09T11:49:32.924Z,100857.95
2018-02-09T11:51:58.847Z,100858.41
2018-02-09T11:54:24.793Z,100857.87
2018-02-09T11:56:50.829Z,100852.73
2018-02-09T11:59:16.782Z,100849.84
2018-02-09T12:01:42.735Z,100847.81
2018-02-09T12:04:08.688Z,100843.17
2018-02-09T12:06:34.625Z,100843.66
2018-02-09T12:09:00.576Z,100848.98
2018-02-09T12:11:26.530Z,100846.14
2018-02-09T12:13:52.469Z,100848.64
2018-02-09T12:16:18.453Z,100854.48
2018-02-09T12:18:44.394Z,100848.85
2018-02-09T12:21:10.371Z,100842.77
2018-02-09T12:23:36.312Z,100837.90
2018-02-09T12:26:02.270Z,100838.92
2018-02-09T12:28:28.210Z,100840.94
2018-02-09T12:30:54.167Z,100842.76
2018-02-09T12:33:20.105Z,100834.64
2018-02-09T12:35:46.101Z,100825.22
2018-02-09T12:38:12.115Z,100835.06
2018-02-09T12:40:38.064Z,100823.28
2018-02-09T12:43:04.037Z,100819.94
2018-02-09T12:45:29.969Z,100822.63
2018-02-09T12:47:55.943Z,100817.02
2018-02-09T12:50:21.891Z,100816.89
2018-02-09T12:52:47.853Z,100804.95
2018-02-09T12:55:13.798Z,100808.62
2018-02-09T12:57:39.754Z,100806.48
2018-02-09T13:00:05.689Z,100802.94
2018-02-09T13:02:31.695Z,100798.48
2018-02-09T13:04:57.619Z,100794.20
2018-02-09T13:07:23.603Z,100799.59
2018-02-09T13:09:49.661Z,100789.96
2018-02-09T13:12:15.620Z,100791.70
2018-02-09T13:14:41.562Z,100787.41
2018-02-09T13:17:07.559Z,100790.86
2018-02-09T13:19:33.510Z,100775.84
2018-02-09T13:21:59.447Z,100767.97
2018-02-09T13:24:25.652Z,100771.31
2018-02-09T13:26:51.666Z,100773.39
2018-02-09T13:29:17.645Z,100779.42
2018-02-09T13:31:43.581Z,100776.08
2018-02-09T13:34:09.540Z,100775.39
2018-02-09T13:36:35.513Z,100768.96
2018-02-09T13:39:01.531Z,100770.40
2018-02-09T13:41:27.442Z,100771.38
2018-02-09T13:43:53.470Z,100772.70
2018-02-09T13:46:19.425Z,100771.23
2018-02-09T13:48:45.391Z,100772.42
2018-02-09T13:51:11.346Z,100773.20
2018-02-09T13:53:37.298Z,100776.05
2018-02-09T13:56:03.270Z,100769.99
2018-02-09T13:58:29.277Z,100766.52
2018-02-09T14:00:55.225Z,100757.19
2018-02-09T14:03:21.161Z,100758.91
2018-02-09T14:05:47.114Z,100757.17
2018-02-09T14:08:13.074Z,100754.97
2018-02-09T14:10:39.025Z,100759.36
2018-02-09T14:13:04.978Z,100754.99
2018-02-09T14:15:30.929Z,100752.11
2018-02-09T14:17:56.848Z,100740.66
2018-02-09T14:20:22.797Z,100743.09
2018-02-09T14:22:48.732Z,100751.05
2018-02-09T14:25:14.677Z,100749.61
2018-02-09T14:27:40.660Z,100752.45
2018-02-09T14:30:06.626Z,100752.36
2018-02-09T14:32:32.584Z,100745.02
2018-02-09T14:34:58.519Z,100740.72
2018-02-09T14:37:24.475Z,100746.48
2018-02-09T14:39:50.432Z,100747.39
2018-02-09T14:42:16.396Z,100750.52
2018-02-09T14:44:42.334Z,100748.91
2018-02-09T14:47:08.377Z,100746.91
2018-02-09T14:49:34.321Z,100748.38
2018-02-09T14:52:00.312Z,100749.55
2018-02-09T14:54:26.247Z,100748.09
2018-02-09T14:56:52.206Z,100748.59
2018-02-09T14:59:18.194Z,100745.67
2018-02-09T15:01:44.158Z,100748.84
2018-02-09T15:04:10.097Z,100748.36
2018-02-09T15:06:36.079Z,100746.41
2018-02-09T15:09:02.037Z,100743.77
2018-02-09T15:11:28.016Z,100743.11
2018-02-09T15:13:53.957Z,100740.09
2018-02-09T15:16:19.905Z,100739.77
2018-02-09T15:18:45.854Z,100744.95
2018-02-09T15:21:11.822Z,100740.17
2018-02-09T15:23:37.789Z,100741.02
2018-02-09T15:26:03.730Z,100744.34
2018-02-09T15:28:29.673Z,100737.89
2018-02-09T15:30:55.648Z,100739.00
2018-02-09T15:33:21.592Z,100737.27
2018-02-09T15:35:47.608Z,100740.69
2018-02-09T15:38:13.562Z,100738.75
2018-02-09T15:40:39.542Z,100743.73
2018-02-09T15:43:05.489Z,100740.33
2018-02-09T15:45:31.468Z,100736.58
2018-02-09T15:47:57.425Z,100736.65
2018-02-09T15:50:23.357Z,100732.69
2018-02-09T15:52:49.319Z,100735.23
2018-02-09T15:55:15.263Z,100738.23
2018-02-09T15:57:41.350Z,100733.46
2018-02-09T16:00:07.241Z,100727.83
2018-02-09T16:02:33.254Z,100737.83
2018-02-09T16:04:59.206Z,100738.56
2018-02-09T16:07:25.191Z,100733.31
2018-02-09T16:09:51.136Z,100732.20
2018-02-09T16:12:17.132Z,100734.59
2018-02-09T16:14:43.097Z,100739.16
2018-02-09T16:17:09.104Z,100738.09
2018-02-09T16:19:35.065Z,100738.59
2018-02-09T16:22:01.029Z,100740.52
2018-02-09T16:24:26.993Z,100730.34
2018-02-09T16:26:52.951Z,100735.45
2018-02-09T16:29:18.881Z,100734.22
2018-02-09T16:31:44.845Z,100739.41
2018-02-09T16:34:10.802Z,100740.66
2018-02-09T16:36:36.753Z,100733.30
2018-02-09T16:39:02.718Z,100727.69
2018-02-09T16:41:28.670Z,100731.58
2018-02-09T16:43:54.688Z,100725.40
2018-02-09T16:46:20.634Z,100723.17
2018-02-09T16:48:46.590Z,100734.49
2018-02-09T16:51:12.525Z,100737.83
2018-02-09T16:53:38.469Z,100738.09
2018-02-09T16:56:04.421Z,100737.05
2018-02-09T16:58:30.383Z,100740.80
2018-02-09T17:00:56.328Z,100739.89
2018-02-09T17:03:22.306Z,100739.20
2018-02-09T17:05:48.257Z,100744.55
2018-02-09T17:08:14.207Z,100746.16
2018-02-09T17:10:40.161Z,100749.00
2018-02-09T17:13:06.107Z,100753.00
2018-02-09T17:15:32.065Z,100752.59
2018-02-09T17:17:58.070Z,100756.41
2018-02-09T17:20:24.035Z,100758.06
2018-02-09T17:22:49.985Z,100757.80
2018-02-09T17:25:15.921Z,100764.59
2018-02-09T17:27:41.873Z,100764.30
2018-02-09T17:30:07.821Z,100769.58
2018-02-09T17:32:33.781Z,100764.80
2018-02-09T17:34:59.725Z,100763.48
2018-02-09T17:37:25.681Z,100769.05
2018-02-09T17:39:51.638Z,100767.44
2018-02-09T17:42:17.601Z,100772.30
2018-02-09T17:44:43.645Z,100768.14
2018-02-09T17:47:09.599Z,100771.10
2018-02-09T17:49:35.554Z,100775.19
2018-02-09T17:52:01.522Z,100778.52
2018-02-09T17:54:27.482Z,100775.14
2018-02-09T17:56:53.423Z,100773.95
2018-02-09T17:59:19.367Z,100779.70
2018-02-09T18:01:45.325Z,100775.19
2018-02-09T18:04:11.296Z,100777.36
2018-02-09T18:06:37.283Z,100775.84
2018-02-09T18:09:03.233Z,100777.77
2018-02-09T18:11:29.192Z,100775.14
2018-02-09T18:13:55.284Z,100776.88
2018-02-09T18:16:21.226Z,100785.19
2018-02-09T18:18:47.201Z,100780.41
2018-02-09T18:21:13.137Z,100784.00
2018-02-09T18:23:39.109Z,100782.47
2018-02-09T18:26:05.076Z,100777.75
2018-02-09T18:28:31.081Z,100780.73
2018-02-09T18:30:57.049Z,100779.63
2018-02-09T18:33:22.985Z,100785.68
2018-02-09T18:35:49.098Z,100781.03
2018-02-09T18:38:15.106Z,100784.28
2018-02-09T18:40:41.111Z,100783.99
2018-02-09T18:43:07.055Z,100787.73
2018-02-09T18:45:33.134Z,100791.08
2018-02-09T18:47:59.107Z,100790.38
2018-02-09T18:50:25.355Z,100787.75
2018-02-09T18:52:51.340Z,100787.25
2018-02-09T18:55:17.290Z,100791.66
2018-02-09T18:57:43.280Z,100790.38
2018-02-09T19:00:09.243Z,100787.91
2018-02-09T19:02:35.329Z,100788.11
2018-02-09T19:05:01.297Z,100790.33
2018-02-09T19:07:27.249Z,100786.38
2018-02-09T19:09:53.213Z,100788.37
2018-02-09T19:12:19.274Z,100782.48
2018-02-09T19:14:45.281Z,100792.06
2018-02-09T19:17:11.229Z,100790.86
2018-02-09T19:19:37.199Z,100793.84
2018-02-09T19:22:03.204Z,100788.31
2018-02-09T19:24:29.155Z,100795.10
2018-02-09T19:26:55.108Z,100791.48
2018-02-09T19:29:21.078Z,100797.53
2018-02-09T19:31:47.039Z,100797.25
2018-02-09T19:34:12.998Z,100800.02
2018-02-09T19:36:38.949Z,100804.26
2018-02-09T19:39:04.916Z,100798.78
2018-02-09T19:41:30.877Z,100800.59
2018-02-09T19:43:56.842Z,100803.44
2018-02-09T19:46:22.798Z,100805.78
2018-02-09T19:48:48.757Z,100813.89
2018-02-09T19:51:14.738Z,100813.61
2018-02-09T19:53:40.698Z,100810.52
2018-02-09T19:56:06.695Z,100810.23
2018-02-09T19:58:32.657Z,100815.63
2018-02-09T20:00:58.625Z,100817.56
2018-02-09T20:03:24.665Z,100811.88
2018-02-09T20:05:50.619Z,100813.41
2018-02-09T20:08:16.561Z,100817.44
2018-02-09T20:10:42.482Z,100816.12
2018-02-09T20:13:08.419Z,100814.80
2018-02-09T20:15:34.417Z,100811.05
2018-02-09T20:18:00.334Z,100806.27
2018-02-09T20:20:26.287Z,100807.88
2018-02-09T20:22:52.243Z,100805.24
2018-02-09T20:25:18.193Z,100805.50
2018-02-09T20:27:44.161Z,100806.81
2018-02-09T20:30:10.141Z,100804.34
2018-02-09T20:32:36.095Z,100799.81
2018-02-09T20:35:02.066Z,100803.64
2018-02-09T20:37:28.038Z,100803.06
2018-02-09T20:39:53.994Z,100800.17
2018-02-09T20:42:19.956Z,100813.41
2018-02-09T20:44:45.902Z,100809.23
2018-02-09T20:47:11.833Z,100809.53
2018-02-09T20:49:37.786Z,100810.30
2018-02-09T20:52:03.962Z,100811.62
2018-02-09T20:54:29.937Z,100811.05
2018-02-09T20:56:55.940Z,100812.45
2018-02-09T20:59:21.869Z,100817.02
2018-02-09T21:01:47.846Z,100810.10
2018-02-09T21:04:13.795Z,100809.41
2018-02-09T21:06:39.744Z,100805.24
2018-02-09T21:09:05.704Z,100807.72
2018-02-09T21:11:31.668Z,100809.61
2018-02-09T21:13:57.630Z,100815.00
2018-02-09T21:16:23.574Z,100821.55
2018-02-09T21:18:49.536Z,100813.15
2018-02-09T21:21:15.614Z,100809.89
2018-02-09T21:23:41.553Z,100807.47
2018-02-09T21:26:07.498Z,100815.00
2018-02-09T21:28:33.503Z,100811.95
2018-02-09T21:30:59.434Z,100816.52
2018-02-09T21:33:25.395Z,100814.67
2018-02-09T21:35:51.353Z,100810.84
2018-02-09T21:38:17.337Z,100816.94
2018-02-09T21:40:43.316Z,100812.23
2018-02-09T21:43:09.263Z,100814.25
2018-02-09T21:45:35.225Z,100818.62
2018-02-09T21:48:01.204Z,100815.36
2018-02-09T21:50:27.154Z,100814.17
2018-02-09T21:52:53.108Z,100810.13
2018-02-09T21:55:19.071Z,100811.88
2018-02-09T21:57:45.115Z,100814.16
2018-02-09T22:00:11.085Z,100815.28
2018-02-09T22:02:37.016Z,100808.69
2018-02-09T22:05:03.077Z,100808.61
2018-02-09T22:07:29.134Z,100808.08
2018-02-09T22:09:55.085Z,100809.72
2018-02-09T22:12:21.042Z,100810.14
2018-02-09T22:14:47.025Z,100813.17
2018-02-09T22:17:12.983Z,100813.88
2018-02-09T22:19:38.976Z,100811.44
2018-02-09T22:22:04.966Z,100810.61
2018-02-09T22:24:30.909Z,100813.74
2018-02-09T22:26:56.855Z,100816.87
2018-02-09T22:29:22.816Z,100813.45
2018-02-09T22:31:48.761Z,100824.89
2018-02-09T22:34:14.741Z,100821.50
2018-02-09T22:36:40.685Z,100822.66
2018-02-09T22:39:06.637Z,100826.59
2018-02-09T22:41:32.601Z,100827.61
2018-02-09T22:43:58.545Z,100818.38
2018-02-09T22:46:24.541Z,100821.44
2018-02-09T22:48:50.511Z,100826.56
2018-02-09T22:51:16.485Z,100830.03
2018-02-09T22:53:42.456Z,100828.09
2018-02-09T22:56:08.421Z,100821.84
2018-02-09T22:58:34.372Z,100825.58
2018-02-09T23:01:00.306Z,100827.59
2018-02-09T23:03:26.269Z,100830.16
2018-02-09T23:05:52.218Z,100828.41
2018-02-09T23:08:18.174Z,100825.00
2018-02-09T23:10:44.155Z,100828.09
2018-02-09T23:13:10.092Z,100825.81
2018-02-09T23:15:36.036Z,100833.72
2018-02-09T23:18:01.981Z,100834.20
2018-02-09T23:20:27.944Z,100838.98
2018-02-09T23:22:53.906Z,100832.43
2018-02-09T23:25:19.871Z,100835.16
2018-02-09T23:27:45.818Z,100841.23
2018-02-09T23:30:11.778Z,100840.33
2018-02-09T23:32:37.724Z,100841.32
2018-02-09T23:35:03.737Z,100838.81
2018-02-09T23:37:29.737Z,100838.89
2018-02-09T23:39:55.686Z,100839.23
2018-02-09T23:42:21.643Z,100842.52
2018-02-09T23:44:47.583Z,100840.55
2018-02-09T23:47:13.546Z,100835.02
2018-02-09T23:49:39.902Z,100837.58
2018-02-09T23:52:05.959Z,100838.95
2018-02-09T23:54:31.895Z,100842.41
2018-02-09T23:56:57.838Z,100833.52
2018-02-09T23:59:23.783Z,100834.80
